createdAt,value
2024-05-09T00:06:12.438Z,10.6
2024-05-09T00:16:14.414Z,10.5
2024-05-09T00:26:15.455Z,10.4
2024-05-09T00:36:16.902Z,10.3
2024-05-09T00:46:18.327Z,10.2
2024-05-09T00:56:20.092Z,10
2024-05-09T01:06:21.668Z,9.9
2024-05-09T01:16:23.082Z,9.8
2024-05-09T01:26:24.254Z,9.6
2024-05-09T01:36:25.879Z,9.6
2024-05-09T01:46:27.458Z,9.4
2024-05-09T01:56:29.203Z,9.2
2024-05-09T02:06:30.731Z,9.2
2024-05-09T02:16:32.480Z,9
2024-05-09T02:26:34.167Z,8.8
2024-05-09T02:36:35.231Z,8.7
2024-05-09T02:46:36.735Z,8.6
2024-05-09T02:56:38.451Z,8.4
2024-05-09T03:06:40.285Z,8.4
2024-05-09T03:16:42.228Z,8.2
2024-05-09T03:26:43.619Z,8.1
2024-05-09T03:36:44.950Z,8
2024-05-09T03:46:46.539Z,7.9
2024-05-09T03:56:47.928Z,7.7
2024-05-09T04:06:49.316Z,7.7
2024-05-09T04:16:51.494Z,7.6
2024-05-09T04:26:52.441Z,7.7
2024-05-09T04:36:53.911Z,7.8
2024-05-09T04:46:55.188Z,7.8
2024-05-09T04:56:57.184Z,7.9
2024-05-09T05:07:00.410Z,8.1
2024-05-09T05:17:00.252Z,8.5
2024-05-09T05:27:01.912Z,8.9
2024-05-09T05:37:03.830Z,9.4
2024-05-09T05:47:05.051Z,9.8
2024-05-09T05:57:06.712Z,10
2024-05-09T06:17:09.995Z,10.5
2024-05-09T06:27:10.998Z,10.7
2024-05-09T06:37:12.121Z,11.1
2024-05-09T06:47:14.136Z,11.3
2024-05-09T06:57:15.555Z,11.6
2024-05-09T07:07:16.841Z,11.8
2024-05-09T07:17:18.026Z,12.1
2024-05-09T07:27:19.781Z,12.6
2024-05-09T07:37:21.704Z,12.9
2024-05-09T07:48:13.342Z,13.3
2024-05-09T07:57:25.217Z,13.7
2024-05-09T08:07:26.398Z,14.2
2024-05-09T08:17:27.677Z,14.6
2024-05-09T08:27:29.124Z,14.9
2024-05-09T08:37:34.880Z,15.2
2024-05-09T08:47:32.211Z,15.3
2024-05-09T09:07:36.040Z,15.7
2024-05-09T09:17:38.053Z,16.3
2024-05-09T09:27:39.659Z,16.3
2024-05-09T09:47:42.656Z,16.8
2024-05-09T10:17:47.165Z,17.5
2024-05-09T10:27:48.807Z,17.5
2024-05-09T10:37:50.308Z,18
2024-05-09T10:47:52.271Z,18.3
2024-05-09T10:57:53.858Z,18.1
2024-05-09T11:07:55.528Z,18.6
2024-05-09T11:17:56.870Z,18.7
2024-05-09T11:27:58.767Z,18.6
2024-05-09T12:08:04.817Z,20.2
2024-05-09T12:28:07.697Z,20.3
2024-05-09T15:58:41.544Z,19.8
2024-05-09T16:18:45.088Z,19.6
2024-05-09T16:38:48.545Z,19.4
2024-05-09T16:58:58.153Z,19.3
2024-05-09T17:19:00.721Z,19
2024-05-09T17:39:03.130Z,18.7
2024-05-09T17:59:08.496Z,18.5
2024-05-09T18:19:09.300Z,18.2
2024-05-09T18:39:12.613Z,17.8
2024-05-09T23:19:54.848Z,11.4
2024-05-09T23:29:56.214Z,11.4
